Terminal Aerodrome Forecast
Issued by NWS

Home | Current Version | Previous Version | Graphics & Text | Print | Product List | Glossary On
Versions: 1 2 3 4 5 6 7 8 9 10 11 12 13 14 15
000
FTUS43 KICT 201720
TAFHUT
TAF
KHUT 201720Z 2018/2118 19014G21KT P6SM SKC
     FM210100 17011KT P6SM SKC
     FM210800 17011KT P6SM SKC WS020/21040KT
     FM211300 19010KT P6SM SKC=

USA.gov is the U.S. government's official web portal to all federal, state and local government web resources and services.